Time;durP1;ratioP1;P1;durP2;ratioP2;P2;SDS_P1;SDS_P2;PMS_P1;PMS_P2;Temp;Humidity;BMP_temperature;BMP_pressure;BME280_temperature;BME280_humidity;BME280_pressure;Samples;Min_cycle;Max_cycle;Signal;HPM_P1;HPM_P2
2022/02/25 00:00:31;;;;;;;2.80;0.93;;;;;;;-0.04;100.00;93224.34;2097874;28;20457;-82
2022/02/25 00:01:32;;;;;;;1.02;0.70;;;;;;;0.03;100.00;93241.34;2097756;28;20089;-82
2022/02/25 00:02:33;;;;;;;2.78;0.85;;;;;;;0.25;100.00;93225.63;2095975;28;20012;-81
2022/02/25 00:03:34;;;;;;;1.95;0.82;;;;;;;0.11;100.00;93227.22;2105625;28;20501;-83
2022/02/25 00:04:35;;;;;;;2.58;0.85;;;;;;;0.27;100.00;93232.41;2104549;28;20020;-82
2022/02/25 00:05:36;;;;;;;2.20;0.57;;;;;;;0.17;100.00;93236.34;2113294;28;20024;-82
2022/02/25 00:06:37;;;;;;;1.20;0.70;;;;;;;-0.07;100.00;93240.78;2118212;27;20019;-83
2022/02/25 00:07:38;;;;;;;2.22;0.80;;;;;;;-0.08;100.00;93246.38;2103912;28;20032;-80
2022/02/25 00:08:39;;;;;;;1.58;0.70;;;;;;;-0.08;100.00;93260.28;2096632;28;20097;-82
2022/02/25 00:09:40;;;;;;;1.40;0.70;;;;;;;-0.09;100.00;93253.50;2097628;28;20074;-82
2022/02/25 00:10:41;;;;;;;0.73;0.68;;;;;;;-0.08;100.00;93249.78;2095182;28;20048;-82
2022/02/25 00:11:42;;;;;;;0.82;0.60;;;;;;;-0.12;100.00;93256.81;2096990;28;20480;-84
2022/02/25 00:12:43;;;;;;;0.52;0.52;;;;;;;-0.05;100.00;93264.81;2093978;28;20024;-82
2022/02/25 00:13:44;;;;;;;2.28;0.75;;;;;;;-0.04;100.00;93261.13;2105816;28;20043;-84
2022/02/25 00:14:45;;;;;;;0.70;0.60;;;;;;;-0.11;100.00;93260.22;2106273;28;20017;-81
2022/02/25 00:15:45;;;;;;;0.80;0.52;;;;;;;-0.13;100.00;93262.41;2106683;28;20448;-81
2022/02/25 00:16:46;;;;;;;1.38;0.73;;;;;;;-0.19;100.00;93266.41;2110341;28;20023;-80
2022/02/25 00:17:47;;;;;;;1.70;0.65;;;;;;;-0.30;100.00;93264.34;2110673;28;20110;-84
2022/02/25 00:18:49;;;;;;;0.65;0.45;;;;;;;-0.27;100.00;93262.88;2106393;28;20061;-81
2022/02/25 00:19:59;;;;;;;0.82;0.50;;;;;;;-0.35;100.00;93271.69;2098470;28;20028;-82
2022/02/25 00:21:00;;;;;;;0.50;0.50;;;;;;;-0.27;100.00;93281.25;2107936;28;20043;-81
2022/02/25 00:22:01;;;;;;;1.35;0.40;;;;;;;-0.57;100.00;93276.50;2098125;28;20024;-84
2022/02/25 00:23:04;;;;;;;1.63;0.73;;;;;;;-0.39;100.00;93279.53;2098311;28;20050;-84
2022/02/25 00:24:05;;;;;;;0.20;0.20;;;;;;;-0.55;100.00;93274.28;2110475;27;20020;-83
2022/02/25 00:25:08;;;;;;;0.30;0.30;;;;;;;-0.53;100.00;93276.56;2098121;28;20081;-81
2022/02/25 00:26:09;;;;;;;0.45;0.32;;;;;;;-0.65;100.00;93271.44;2098868;28;20392;-83
2022/02/25 00:27:10;;;;;;;0.45;0.30;;;;;;;-0.57;100.00;93278.34;2106367;28;20031;-81
2022/02/25 00:28:11;;;;;;;1.15;0.43;;;;;;;-0.58;100.00;93284.69;2106559;28;20023;-81
2022/02/25 00:29:11;;;;;;;0.40;0.40;;;;;;;-0.48;100.00;93292.06;2098068;28;20024;-81
2022/02/25 00:30:13;;;;;;;0.52;0.40;;;;;;;-0.40;100.00;93295.59;2098298;28;20028;-81
2022/02/25 00:31:14;;;;;;;0.40;0.35;;;;;;;-0.59;100.00;93297.06;2105992;28;20031;-81
2022/02/25 00:32:15;;;;;;;0.22;0.22;;;;;;;-0.40;100.00;93298.97;2098066;28;20501;-82
2022/02/25 00:33:17;;;;;;;0.75;0.40;;;;;;;-0.48;100.00;93294.69;2115105;28;20055;-81
2022/02/25 00:34:17;;;;;;;0.47;0.30;;;;;;;-0.37;100.00;93306.19;2105558;28;20028;-81
2022/02/25 00:35:19;;;;;;;1.73;0.55;;;;;;;-0.38;100.00;93312.53;2089789;28;20474;-82
2022/02/25 00:36:20;;;;;;;0.40;0.30;;;;;;;-0.51;100.00;93306.63;2098233;28;20074;-80
2022/02/25 00:37:20;;;;;;;0.40;0.30;;;;;;;-0.47;100.00;93306.72;2097947;28;20495;-83
2022/02/25 00:38:21;;;;;;;0.35;0.30;;;;;;;-0.48;100.00;93307.81;2098121;28;20071;-80
2022/02/25 00:39:22;;;;;;;0.30;0.30;;;;;;;-0.51;100.00;93301.38;2114770;28;20028;-83
2022/02/25 00:40:29;;;;;;;0.63;0.30;;;;;;;-0.63;100.00;93300.72;2106392;28;20024;-82
2022/02/25 00:41:30;;;;;;;1.20;0.40;;;;;;;-0.70;100.00;93297.91;2098817;28;20028;-83
2022/02/25 00:42:31;;;;;;;1.23;0.32;;;;;;;-0.33;100.00;93303.66;2097922;28;20046;-85
2022/02/25 00:43:32;;;;;;;0.70;0.40;;;;;;;-0.38;100.00;93296.78;2098168;28;20020;-81
2022/02/25 00:44:33;;;;;;;0.28;0.28;;;;;;;-0.39;100.00;93297.91;2098130;28;20021;-83
2022/02/25 00:45:34;;;;;;;0.30;0.30;;;;;;;-0.51;100.00;93295.38;2097921;28;20245;-82
2022/02/25 00:46:35;;;;;;;0.98;0.40;;;;;;;-0.41;100.00;93284.34;2096123;28;20016;-82
2022/02/25 00:47:37;;;;;;;0.60;0.45;;;;;;;-0.46;100.00;93287.22;2097978;28;20051;-83
2022/02/25 00:48:38;;;;;;;1.70;0.50;;;;;;;-0.44;100.00;93300.00;2098045;28;20042;-82
2022/02/25 00:49:39;;;;;;;1.15;0.55;;;;;;;-0.48;100.00;93296.53;2108957;28;20392;-82
2022/02/25 00:50:40;;;;;;;1.33;0.50;;;;;;;-0.48;100.00;93297.31;2109489;28;20019;-82
2022/02/25 00:51:41;;;;;;;0.98;0.50;;;;;;;-0.37;100.00;93305.44;2106181;28;20489;-82
2022/02/25 00:52:42;;;;;;;3.28;1.67;;;;;;;-0.48;100.00;93297.31;2089711;28;20055;-81
2022/02/25 00:53:43;;;;;;;0.93;0.50;;;;;;;-0.39;100.00;93303.16;2098720;28;20024;-81
2022/02/25 00:54:45;;;;;;;0.98;0.50;;;;;;;-0.24;100.00;93309.47;2106079;28;20024;-82
2022/02/25 00:55:46;;;;;;;1.02;0.50;;;;;;;-0.29;100.00;93309.75;2106095;28;20028;-82
2022/02/25 00:56:47;;;;;;;3.42;0.77;;;;;;;-0.34;100.00;93310.00;2097982;28;20047;-81
2022/02/25 00:57:50;;;;;;;0.70;0.70;;;;;;;-0.29;100.00;93310.50;2097634;28;20039;-79
2022/02/25 00:58:55;;;;;;;0.88;0.70;;;;;;;-0.48;100.00;93309.66;2106709;28;20028;-81
2022/02/25 00:59:56;;;;;;;1.15;0.73;;;;;;;-0.47;100.00;93309.34;2115420;27;20023;-81
2022/02/25 01:00:59;;;;;;;1.90;0.60;;;;;;;-0.58;100.00;93310.94;2105962;28;20051;-82
2022/02/25 01:02:00;;;;;;;0.60;0.60;;;;;;;-0.69;100.00;93320.47;2106706;28;20031;-81
2022/02/25 01:03:00;;;;;;;3.22;1.00;;;;;;;-0.55;100.00;93315.53;2106036;28;20106;-82
2022/02/25 01:04:02;;;;;;;1.38;0.60;;;;;;;-0.73;100.00;93314.38;2106024;28;20032;-82
2022/02/25 01:05:04;;;;;;;0.85;0.50;;;;;;;-0.72;100.00;93308.75;2089829;28;20388;-80
2022/02/25 01:06:05;;;;;;;1.15;0.60;;;;;;;-0.65;100.00;93308.19;2097896;28;20031;-82
2022/02/25 01:07:06;;;;;;;1.83;0.90;;;;;;;-0.58;100.00;93303.84;2105902;28;20672;-82
2022/02/25 01:08:08;;;;;;;1.95;0.70;;;;;;;-0.56;100.00;93312.16;2097761;28;20538;-81
2022/02/25 01:09:11;;;;;;;2.03;0.65;;;;;;;-0.43;100.00;93315.44;2089975;28;20029;-80
2022/02/25 01:10:15;;;;;;;4.38;0.70;;;;;;;-0.54;100.00;93314.41;2098372;28;20057;-81
2022/02/25 01:11:17;;;;;;;4.47;0.88;;;;;;;-0.56;100.00;93329.75;2097769;28;20394;-81
2022/02/25 01:12:18;;;;;;;5.65;1.00;;;;;;;-0.57;100.00;93322.97;2098168;28;20024;-80
2022/02/25 01:13:19;;;;;;;3.97;0.90;;;;;;;-0.77;100.00;93328.16;2105838;28;20644;-82
2022/02/25 01:14:20;;;;;;;4.88;0.80;;;;;;;-0.62;100.00;93336.34;2097607;28;20016;-81
2022/02/25 01:15:21;;;;;;;2.60;0.98;;;;;;;-0.56;100.00;93333.16;2097786;28;20856;-80
2022/02/25 01:16:22;;;;;;;2.45;1.00;;;;;;;-0.71;100.00;93333.91;2100617;28;20035;-80
2022/02/25 01:17:23;;;;;;;2.97;1.17;;;;;;;-0.68;100.00;93340.34;2097263;28;20139;-83
2022/02/25 01:18:24;;;;;;;2.88;1.30;;;;;;;-0.72;100.00;93348.13;2098048;28;20020;-83
2022/02/25 01:19:25;;;;;;;5.05;0.93;;;;;;;-0.84;100.00;93345.56;2111001;27;20065;-82
2022/02/25 01:20:26;;;;;;;3.80;0.80;;;;;;;-0.85;100.00;93339.56;2113299;28;20020;-79
2022/02/25 01:21:29;;;;;;;2.63;0.90;;;;;;;-0.67;100.00;93345.25;2097897;28;20072;-83
2022/02/25 01:22:30;;;;;;;4.05;0.90;;;;;;;-0.80;100.00;93354.31;2106434;28;20035;-80
2022/02/25 01:23:31;;;;;;;5.90;1.15;;;;;;;-0.75;100.00;93340.91;2097819;28;20028;-81
2022/02/25 01:24:33;;;;;;;3.42;1.05;;;;;;;-0.94;100.00;93341.59;2097533;28;20366;-81
2022/02/25 01:25:35;;;;;;;2.55;0.80;;;;;;;-0.90;100.00;93336.44;2106191;28;20083;-83
2022/02/25 01:26:36;;;;;;;4.47;0.90;;;;;;;-0.99;100.00;93347.09;2114146;28;20023;-82
2022/02/25 01:27:37;;;;;;;4.50;1.15;;;;;;;-0.94;100.00;93346.09;2106352;28;20106;-81
2022/02/25 01:28:38;;;;;;;2.58;1.02;;;;;;;-0.93;100.00;93347.59;2097583;28;20044;-82
2022/02/25 01:29:39;;;;;;;5.25;1.17;;;;;;;-0.93;100.00;93347.59;2112894;28;20061;-84
2022/02/25 01:30:40;;;;;;;6.78;1.42;;;;;;;-0.95;100.00;93349.81;2122773;27;20433;-81
2022/02/25 01:31:43;;;;;;;3.88;1.13;;;;;;;-0.93;100.00;93363.34;2122914;27;20019;-82
2022/02/25 01:32:44;;;;;;;5.05;0.93;;;;;;;-0.86;100.00;93353.78;2114682;28;20115;-81
2022/02/25 01:33:46;;;;;;;3.08;1.30;;;;;;;-0.97;100.00;93358.00;2105902;28;20028;-80
2022/02/25 01:34:47;;;;;;;2.13;0.95;;;;;;;-0.93;100.00;93356.22;2097552;28;20025;-80
2022/02/25 01:35:51;;;;;;;8.30;1.08;;;;;;;-0.89;100.00;93354.47;2098726;28;20036;-82
2022/02/25 01:36:52;;;;;;;2.92;0.90;;;;;;;-0.80;100.00;93352.44;2106780;28;20197;-83
2022/02/25 01:37:53;;;;;;;3.33;0.93;;;;;;;-0.74;100.00;93352.97;2117719;27;20053;-82
2022/02/25 01:38:54;;;;;;;3.67;1.02;;;;;;;-0.76;100.00;93344.66;2105919;28;20026;-80
2022/02/25 01:39:55;;;;;;;5.47;1.30;;;;;;;-0.64;100.00;93351.69;2090171;28;20021;-83
2022/02/25 01:40:58;;;;;;;5.85;1.08;;;;;;;-0.79;100.00;93347.94;2105871;28;20028;-82
2022/02/25 01:42:01;;;;;;;5.80;1.00;;;;;;;-0.81;100.00;93345.66;2106126;28;20456;-82
2022/02/25 01:43:02;;;;;;;3.30;1.00;;;;;;;-0.82;100.00;93341.53;2105891;28;20020;-80
2022/02/25 01:44:13;;;;;;;3.40;1.10;;;;;;;-0.77;100.00;93351.00;2118497;27;20027;-81
2022/02/25 01:45:15;;;;;;;3.47;0.90;;;;;;;-0.72;100.00;93350.75;2121486;27;20012;-81
2022/02/25 01:46:16;;;;;;;4.47;1.20;;;;;;;-0.58;100.00;93355.56;2101927;28;20097;-80
2022/02/25 01:47:18;;;;;;;3.35;1.13;;;;;;;-0.80;100.00;93349.81;2105914;28;20070;-80
2022/02/25 01:48:19;;;;;;;3.70;1.20;;;;;;;-0.77;100.00;93362.28;2097386;28;20024;-80
2022/02/25 01:49:22;;;;;;;5.32;1.00;;;;;;;-0.95;100.00;93361.06;2097813;28;20021;-81
2022/02/25 01:50:23;;;;;;;3.00;0.93;;;;;;;-0.82;100.00;93361.75;2097705;28;20052;-81
2022/02/25 01:51:24;;;;;;;4.18;1.23;;;;;;;-0.82;100.00;93364.38;2105708;28;20024;-82
2022/02/25 01:52:24;;;;;;;6.82;1.23;;;;;;;-0.79;100.00;93361.06;2097541;28;20024;-81
2022/02/25 01:53:26;;;;;;;4.40;1.40;;;;;;;-0.92;100.00;93368.28;2089475;28;20458;-82
2022/02/25 01:54:28;;;;;;;8.90;1.67;;;;;;;-0.81;100.00;93381.66;2089341;28;20048;-81
2022/02/25 01:55:30;;;;;;;3.08;1.02;;;;;;;-0.83;100.00;93381.25;2098040;28;20036;-80
2022/02/25 01:56:31;;;;;;;3.70;1.08;;;;;;;-0.89;100.00;93379.94;2114199;28;20399;-81
2022/02/25 01:57:32;;;;;;;2.20;1.30;;;;;;;-0.83;100.00;93381.25;2114304;28;20027;-81
2022/02/25 01:58:33;;;;;;;5.07;1.27;;;;;;;-0.86;100.00;93379.28;2097380;28;20024;-82
2022/02/25 01:59:35;;;;;;;5.85;1.27;;;;;;;-0.88;100.00;93376.22;2097435;28;20349;-82
2022/02/25 02:00:36;;;;;;;4.32;1.48;;;;;;;-0.78;100.00;93371.25;2097618;28;20051;-81
2022/02/25 02:01:39;;;;;;;2.63;0.98;;;;;;;-0.88;100.00;93370.97;2108547;28;20087;-82
2022/02/25 02:02:41;;;;;;;7.10;1.48;;;;;;;-0.83;100.00;93370.75;2122702;27;20090;-83
2022/02/25 02:03:42;;;;;;;5.38;1.75;;;;;;;-0.90;100.00;93371.31;2106028;28;20023;-83
2022/02/25 02:04:43;;;;;;;2.22;1.13;;;;;;;-0.80;100.00;93370.03;2105633;28;20051;-81
2022/02/25 02:05:44;;;;;;;5.30;1.10;;;;;;;-0.93;100.00;93355.47;2097351;28;20103;-80
2022/02/25 02:06:45;;;;;;;6.03;1.10;;;;;;;-0.91;100.00;93361.91;2106646;28;20102;-81
2022/02/25 02:07:46;;;;;;;4.20;1.20;;;;;;;-0.83;100.00;93363.63;2114191;28;20020;-82
2022/02/25 02:08:47;;;;;;;7.60;1.48;;;;;;;-0.92;100.00;93370.09;2097508;28;20056;-81
2022/02/25 02:11:45;;;;;;;;;;;;;;;-0.95;100.00;93376.06;2132838;27;20191;-87
2022/02/25 02:12:46;;;;;;;5.80;1.27;;;;;;;-0.99;100.00;93375.19;2121555;28;19964;-84
2022/02/25 02:13:47;;;;;;;4.18;1.40;;;;;;;-0.97;100.00;93372.97;2104682;28;20587;-84
2022/02/25 02:14:48;;;;;;;5.57;1.30;;;;;;;-0.88;100.00;93376.22;2104772;28;20081;-84
2022/02/25 02:15:49;;;;;;;8.52;1.50;;;;;;;-0.83;100.00;93378.63;2104502;28;20133;-85
2022/02/25 02:16:53;;;;;;;3.00;1.30;;;;;;;-0.65;100.00;93382.44;2100627;28;20039;-85
2022/02/25 02:17:54;;;;;;;2.47;1.20;;;;;;;-0.69;100.00;93378.19;2100537;28;20457;-84
2022/02/25 02:18:56;;;;;;;8.65;1.50;;;;;;;-0.61;100.00;93379.91;2105032;28;20483;-85
2022/02/25 02:19:58;;;;;;;5.55;1.30;;;;;;;-0.49;100.00;93385.03;2104425;28;20430;-85
2022/02/25 02:20:59;;;;;;;5.57;1.20;;;;;;;-0.74;100.00;93381.06;2104661;28;20603;-83
2022/02/25 02:22:00;;;;;;;8.52;1.60;;;;;;;-0.84;100.00;93390.19;2112863;28;20045;-85
2022/02/25 02:23:17;;;;;;;5.10;1.35;;;;;;;-0.92;100.00;93386.63;2121107;28;20035;-85
2022/02/25 02:24:20;;;;;;;6.95;1.70;;;;;;;-0.96;100.00;93388.41;2108988;28;20421;-82
2022/02/25 02:25:21;;;;;;;2.97;1.33;;;;;;;-0.80;100.00;93398.91;2113626;27;20032;-83
2022/02/25 02:26:23;;;;;;;2.90;1.23;;;;;;;-0.78;100.00;93386.22;2112920;28;20185;-83
2022/02/25 02:28:17;;;;;;;3.92;1.17;;;;;;;-0.81;100.00;93392.91;2104711;28;20104;-83
2022/02/25 02:28:49;;;;;;;4.35;1.08;;;;;;;-0.82;100.00;93380.88;2119416;27;20034;-82
2022/02/25 02:29:50;;;;;;;3.63;1.05;;;;;;;-0.76;100.00;93381.41;2112987;28;20020;-84
2022/02/25 02:30:51;;;;;;;8.75;1.95;;;;;;;-0.73;100.00;93380.72;2112967;27;20027;-84
2022/02/25 02:31:52;;;;;;;6.43;1.55;;;;;;;-0.88;100.00;93381.47;2112924;28;20028;-81
2022/02/25 02:32:53;;;;;;;8.05;1.35;;;;;;;-0.87;100.00;93388.25;2104645;28;20020;-84
2022/02/25 02:33:56;;;;;;;6.40;1.40;;;;;;;-0.94;100.00;93399.31;2113042;28;20027;-85
2022/02/25 02:34:56;;;;;;;3.83;1.73;;;;;;;-0.72;100.00;93394.59;2104580;28;20035;-84
2022/02/25 02:35:57;;;;;;;4.15;1.20;;;;;;;-0.73;100.00;93393.84;2104381;28;20055;-81
2022/02/25 02:36:59;;;;;;;6.15;1.48;;;;;;;-0.91;100.00;93395.28;2104324;28;20016;-84
2022/02/25 02:38:00;;;;;;;3.88;1.38;;;;;;;-0.61;100.00;93393.78;2109309;28;20384;-83
2022/02/25 02:39:01;;;;;;;5.30;1.27;;;;;;;-0.68;100.00;93408.59;2107775;27;20457;-84
2022/02/25 02:40:03;;;;;;;4.30;1.38;;;;;;;-0.72;100.00;93405.09;2110500;28;20107;-81
2022/02/25 02:41:05;;;;;;;7.93;1.60;;;;;;;-0.60;100.00;93403.19;2116234;27;20024;-84
2022/02/25 02:42:07;;;;;;;7.38;1.50;;;;;;;-0.54;100.00;93401.81;2112443;28;20412;-86
2022/02/25 02:43:10;;;;;;;5.88;2.00;;;;;;;-0.55;100.00;93405.56;2112681;28;20393;-85
2022/02/25 02:44:18;;;;;;;4.55;1.30;;;;;;;-0.73;100.00;93406.97;2105205;28;20054;-83
2022/02/25 02:45:20;;;;;;;3.38;1.38;;;;;;;-0.89;100.00;93408.81;2107482;28;20065;-85
2022/02/25 02:46:21;;;;;;;6.75;1.85;;;;;;;-0.98;100.00;93410.81;2117040;27;20019;-84
2022/02/25 02:47:22;;;;;;;7.20;1.50;;;;;;;-0.99;100.00;93406.66;2112587;28;20027;-84
2022/02/25 02:48:24;;;;;;;4.90;1.08;;;;;;;-0.78;100.00;93412.47;2104309;28;20055;-84
2022/02/25 02:49:25;;;;;;;6.90;1.80;;;;;;;-0.81;100.00;93413.13;2121135;28;20035;-82
2022/02/25 02:50:26;;;;;;;4.47;1.90;;;;;;;-0.89;100.00;93411.44;2112846;28;20085;-83
2022/02/25 02:51:29;;;;;;;5.00;1.27;;;;;;;-0.88;100.00;93411.09;2105053;28;20024;-85
2022/02/25 02:52:30;;;;;;;4.95;1.30;;;;;;;-0.96;100.00;93414.66;2113218;28;20024;-83
2022/02/25 02:53:31;;;;;;;5.03;1.58;;;;;;;-0.80;100.00;93412.03;2113611;28;20028;-85
2022/02/25 02:54:32;;;;;;;7.18;1.33;;;;;;;-0.90;100.00;93417.78;2095863;28;20395;-83
2022/02/25 02:55:33;;;;;;;4.15;1.40;;;;;;;-0.95;100.00;93418.03;2104112;28;20063;-82
2022/02/25 02:56:34;;;;;;;5.32;1.42;;;;;;;-0.94;100.00;93414.28;2095944;28;20025;-84
2022/02/25 02:57:36;;;;;;;6.03;1.50;;;;;;;-0.85;100.00;93428.03;2104452;28;20028;-83
2022/02/25 02:58:37;;;;;;;7.63;1.73;;;;;;;-0.79;100.00;93427.47;2104287;28;20028;-85
2022/02/25 02:59:38;;;;;;;7.95;1.50;;;;;;;-0.81;100.00;93421.00;2096021;28;20055;-82
2022/02/25 03:00:41;;;;;;;5.20;1.60;;;;;;;-0.88;100.00;93418.97;2095929;28;20439;-85
2022/02/25 03:01:43;;;;;;;3.83;1.58;;;;;;;-0.86;100.00;93424.66;2104333;28;20032;-84
2022/02/25 03:02:44;;;;;;;4.82;1.50;;;;;;;-0.93;100.00;93421.06;2104370;28;20025;-82
2022/02/25 03:03:45;;;;;;;3.42;1.30;;;;;;;-0.87;100.00;93433.63;2112176;27;20069;-82
2022/02/25 03:04:46;;;;;;;5.10;1.48;;;;;;;-0.89;100.00;93433.19;2117050;28;20024;-83
2022/02/25 03:05:47;;;;;;;6.35;1.52;;;;;;;-0.96;100.00;93433.00;2103952;28;20469;-84
2022/02/25 03:06:48;;;;;;;5.90;1.58;;;;;;;-0.91;100.00;93426.75;2093880;28;20021;-85
2022/02/25 03:07:49;;;;;;;10.52;1.90;;;;;;;-0.90;100.00;93426.41;2104037;28;20048;-82
2022/02/25 03:08:50;;;;;;;8.93;1.55;;;;;;;-1.03;100.00;93428.31;2104218;28;20496;-84
2022/02/25 03:09:51;;;;;;;6.45;1.90;;;;;;;-1.07;100.00;93427.47;2112480;28;20487;-83
2022/02/25 03:10:52;;;;;;;9.63;2.00;;;;;;;-1.05;100.00;93425.28;2112388;28;20408;-84
2022/02/25 03:11:54;;;;;;;5.70;1.70;;;;;;;-1.18;100.00;93423.81;2112414;28;20044;-82
2022/02/25 03:12:56;;;;;;;5.05;2.03;;;;;;;-1.11;100.00;93425.84;2121196;27;20404;-82
2022/02/25 03:13:58;;;;;;;6.07;1.73;;;;;;;-1.14;100.00;93439.63;2104271;28;20024;-81
2022/02/25 03:14:59;;;;;;;8.70;1.40;;;;;;;-1.29;100.00;93425.34;2095939;28;20025;-83
2022/02/25 03:16:00;;;;;;;10.25;1.60;;;;;;;-0.96;100.00;93429.63;2087554;28;20021;-81
2022/02/25 03:17:03;;;;;;;7.60;1.63;;;;;;;-1.04;100.00;93431.28;2087523;28;20506;-84
2022/02/25 03:18:04;;;;;;;7.40;1.67;;;;;;;-1.07;100.00;93430.09;2087784;28;20399;-81
2022/02/25 03:19:05;;;;;;;8.20;1.65;;;;;;;-1.11;100.00;93439.72;2095845;28;20612;-82
2022/02/25 03:20:10;;;;;;;5.75;1.40;;;;;;;-1.02;100.00;93435.09;2095724;28;20021;-83
2022/02/25 03:21:11;;;;;;;6.35;2.25;;;;;;;-1.13;100.00;93433.28;2080251;28;20026;-83
2022/02/25 03:22:12;;;;;;;6.28;2.30;;;;;;;-1.23;100.00;93431.88;2086039;28;20025;-82
2022/02/25 03:23:13;;;;;;;8.10;1.95;;;;;;;-1.19;100.00;93437.22;2098749;28;20029;-82
2022/02/25 03:24:14;;;;;;;7.65;1.85;;;;;;;-1.09;100.00;93445.41;2098491;28;20074;-85
2022/02/25 03:25:17;;;;;;;6.50;1.67;;;;;;;-1.24;100.00;93433.00;2090322;28;20041;-85
2022/02/25 03:26:18;;;;;;;3.88;1.55;;;;;;;-1.29;100.00;93441.84;2089944;28;20037;-83
2022/02/25 03:27:19;;;;;;;12.75;2.10;;;;;;;-1.15;100.00;93438.84;2098144;28;20541;-84
2022/02/25 03:28:20;;;;;;;4.32;1.90;;;;;;;-1.18;100.00;93433.53;2094290;28;20105;-84
2022/02/25 03:29:22;;;;;;;3.03;1.50;;;;;;;-1.36;100.00;93443.50;2099029;28;20534;-85
2022/02/25 03:30:23;;;;;;;8.85;2.13;;;;;;;-1.45;100.00;93442.88;2107029;28;20077;-82
2022/02/25 03:31:24;;;;;;;7.70;1.70;;;;;;;-1.43;100.00;93443.31;2114956;28;20030;-83
2022/02/25 03:32:25;;;;;;;4.57;1.02;;;;;;;-1.50;100.00;93450.97;2098477;28;20112;-82
2022/02/25 03:33:26;;;;;;;5.82;1.48;;;;;;;-1.52;100.00;93454.69;2115308;27;20020;-85
2022/02/25 03:34:27;;;;;;;8.23;2.53;;;;;;;-1.59;100.00;93453.72;2123861;27;20027;-82
2022/02/25 03:35:30;;;;;;;7.78;1.75;;;;;;;-1.44;100.00;93450.44;2115017;28;20019;-80
2022/02/25 03:36:32;;;;;;;10.23;2.00;;;;;;;-1.55;100.00;93452.72;2099260;28;20108;-84
2022/02/25 03:37:33;;;;;;;2.83;1.30;;;;;;;-1.31;100.00;93453.78;2107056;28;20023;-84
2022/02/25 03:38:35;;;;;;;7.57;2.13;;;;;;;-1.35;100.00;93448.44;2106643;28;20031;-84
2022/02/25 03:39:36;;;;;;;9.07;1.45;;;;;;;-1.33;100.00;93455.97;2106779;28;20334;-84
2022/02/25 03:40:37;;;;;;;5.50;1.48;;;;;;;-1.21;100.00;93455.16;2106692;28;20020;-84
2022/02/25 03:41:38;;;;;;;4.90;1.42;;;;;;;-1.20;100.00;93454.06;2098250;28;20110;-83
2022/02/25 03:42:39;;;;;;;6.57;1.77;;;;;;;-1.24;100.00;93458.44;2107002;28;20135;-86
2022/02/25 03:43:40;;;;;;;9.73;1.55;;;;;;;-1.47;100.00;93451.09;2115159;27;20471;-83
2022/02/25 03:44:42;;;;;;;4.45;1.30;;;;;;;-1.42;100.00;93460.56;2114956;28;20034;-83
2022/02/25 03:45:45;;;;;;;5.55;1.77;;;;;;;-1.51;100.00;93460.69;2099153;28;20039;-84
2022/02/25 03:46:47;;;;;;;5.68;1.40;;;;;;;-1.65;100.00;93455.81;2092362;28;20393;-83
2022/02/25 03:47:48;;;;;;;3.53;1.50;;;;;;;-1.49;100.00;93465.59;2096395;28;20025;-82
2022/02/25 03:48:50;;;;;;;10.77;1.63;;;;;;;-1.56;100.00;93459.06;2098432;28;20077;-83
2022/02/25 03:49:51;;;;;;;7.38;1.40;;;;;;;-1.59;100.00;93462.34;2098325;28;20125;-83
2022/02/25 03:50:52;;;;;;;5.30;1.52;;;;;;;-1.72;100.00;93460.84;2102680;28;20024;-83
2022/02/25 03:51:53;;;;;;;6.15;1.35;;;;;;;-1.60;100.00;93468.69;2115071;28;20478;-82
2022/02/25 03:52:54;;;;;;;10.45;1.80;;;;;;;-1.68;100.00;93460.94;2114917;28;20024;-83
2022/02/25 03:53:55;;;;;;;10.77;2.10;;;;;;;-1.73;100.00;93461.94;2100323;28;20133;-82
2022/02/25 03:54:56;;;;;;;4.68;1.08;;;;;;;-1.74;100.00;93460.41;2089776;28;20575;-82
2022/02/25 03:55:57;;;;;;;10.65;1.75;;;;;;;-1.66;100.00;93459.53;2089939;28;20124;-82
2022/02/25 03:56:58;;;;;;;6.20;1.48;;;;;;;-1.60;100.00;93463.44;2098214;28;20032;-82
2022/02/25 03:57:59;;;;;;;7.72;1.45;;;;;;;-1.78;100.00;93457.69;2090039;28;20025;-84
2022/02/25 03:59:00;;;;;;;5.93;1.45;;;;;;;-1.87;100.00;93464.13;2098482;28;20438;-86
2022/02/25 04:00:03;;;;;;;9.35;1.67;;;;;;;-1.97;100.00;93464.59;2106317;28;20419;-82
2022/02/25 04:01:04;;;;;;;4.72;1.35;;;;;;;-2.06;100.00;93464.69;2102126;28;20378;-84
2022/02/25 04:02:05;;;;;;;4.72;1.50;;;;;;;-2.06;100.00;93464.69;2106352;28;20032;-83
2022/02/25 04:03:06;;;;;;;4.15;1.42;;;;;;;-2.14;100.00;93463.69;2098404;28;20028;-82
2022/02/25 04:04:07;;;;;;;8.18;1.50;;;;;;;-2.10;100.00;93469.06;2098078;28;20493;-84
2022/02/25 04:05:12;;;;;;;7.05;1.58;;;;;;;-2.11;100.00;93468.28;2097733;28;20032;-83
2022/02/25 04:06:13;;;;;;;10.90;1.67;;;;;;;-2.18;100.00;93468.06;2090223;28;20043;-81
2022/02/25 04:07:20;;;;;;;6.88;1.90;;;;;;;-2.30;100.00;93470.66;2098116;28;20052;-84
2022/02/25 04:08:21;;;;;;;5.15;1.70;;;;;;;-2.16;100.00;93473.72;2099455;27;20342;-83
2022/02/25 04:09:22;;;;;;;5.80;1.92;;;;;;;-2.17;100.00;93477.44;2114778;28;20023;-83
2022/02/25 04:10:24;;;;;;;9.88;2.72;;;;;;;-2.22;100.00;93479.50;2123330;27;20357;-83
2022/02/25 04:11:25;;;;;;;3.85;1.40;;;;;;;-2.26;100.00;93482.00;2106075;28;20192;-81
2022/02/25 04:12:26;;;;;;;5.43;2.08;;;;;;;-2.37;100.00;93488.75;2105464;28;20020;-81
2022/02/25 04:13:27;;;;;;;9.02;2.00;;;;;;;-2.33;100.00;93484.38;2089826;28;20025;-82
2022/02/25 04:14:28;;;;;;;8.07;2.22;;;;;;;-2.33;100.00;93481.78;2089855;28;20082;-82
2022/02/25 04:15:29;;;;;;;8.10;2.30;;;;;;;-2.60;100.00;93481.28;2081318;28;20111;-83
2022/02/25 04:16:30;;;;;;;9.88;1.70;;;;;;;-2.55;100.00;93488.16;2081540;28;20021;-83
2022/02/25 04:17:31;;;;;;;5.10;1.50;;;;;;;-2.42;100.00;93487.09;2098231;28;20028;-83
2022/02/25 04:18:32;;;;;;;3.80;1.48;;;;;;;-2.46;100.00;93485.47;2097931;28;20100;-84
2022/02/25 04:19:33;;;;;;;6.20;1.60;;;;;;;-2.53;100.00;93486.75;2098038;28;20461;-82
2022/02/25 04:20:34;;;;;;;4.45;1.33;;;;;;;-2.50;100.00;93495.03;2097832;28;20095;-82
2022/02/25 04:21:35;;;;;;;9.10;1.30;;;;;;;-2.53;100.00;93502.47;2081482;28;20041;-83
2022/02/25 04:22:36;;;;;;;7.90;1.50;;;;;;;-2.58;100.00;93499.28;2089794;28;20078;-82
2022/02/25 04:23:39;;;;;;;3.38;1.73;;;;;;;-2.60;100.00;93504.06;2089968;28;20021;-81
2022/02/25 04:24:40;;;;;;;6.28;1.23;;;;;;;-2.62;100.00;93509.63;2081882;28;20477;-81
2022/02/25 04:25:41;;;;;;;4.82;1.30;;;;;;;-2.72;100.00;93510.06;2089483;28;20032;-82
2022/02/25 04:26:42;;;;;;;4.35;1.95;;;;;;;-2.73;100.00;93510.34;2089585;28;20032;-84
2022/02/25 04:27:44;;;;;;;6.50;1.50;;;;;;;-2.81;100.00;93507.50;2081442;28;20021;-81
2022/02/25 04:28:45;;;;;;;12.65;2.08;;;;;;;-2.80;100.00;93505.66;2097156;28;20031;-80
2022/02/25 04:29:47;;;;;;;3.67;1.17;;;;;;;-2.72;100.00;93506.66;2106246;28;20019;-83
2022/02/25 04:30:49;;;;;;;6.00;1.42;;;;;;;-2.78;100.00;93506.84;2123026;27;20023;-82
2022/02/25 04:31:50;;;;;;;6.43;1.73;;;;;;;-2.74;100.00;93501.75;2106460;28;20024;-82
2022/02/25 04:32:51;;;;;;;6.82;1.70;;;;;;;-2.94;100.00;93505.16;2106293;28;20496;-82
2022/02/25 04:33:52;;;;;;;6.20;1.50;;;;;;;-2.68;100.00;93512.75;2109643;28;20056;-84
2022/02/25 04:34:53;;;;;;;4.85;1.25;;;;;;;-2.48;100.00;93511.19;2097231;28;20032;-82
2022/02/25 04:35:54;;;;;;;7.95;1.55;;;;;;;-2.56;100.00;93510.94;2097840;28;20079;-81
2022/02/25 04:36:55;;;;;;;6.28;2.10;;;;;;;-2.61;100.00;93502.56;2097480;28;20025;-82
2022/02/25 04:37:56;;;;;;;5.55;1.45;;;;;;;-2.78;100.00;93516.56;2093238;28;20055;-82
2022/02/25 04:38:57;;;;;;;5.75;2.85;;;;;;;-2.87;100.00;93516.63;2089318;28;20055;-83
2022/02/25 04:39:58;;;;;;;4.45;2.00;;;;;;;-2.73;100.00;93516.34;2089671;28;20035;-84
2022/02/25 04:41:01;;;;;;;7.10;1.80;;;;;;;-2.79;100.00;93521.03;2087903;28;20116;-82
2022/02/25 04:42:03;;;;;;;3.35;1.15;;;;;;;-2.64;100.00;93514.41;2106345;28;20024;-83
2022/02/25 04:43:05;;;;;;;6.72;1.95;;;;;;;-2.69;100.00;93521.72;2096083;28;20127;-83
2022/02/25 04:44:06;;;;;;;5.75;1.38;;;;;;;-2.54;100.00;93519.25;2089644;28;20178;-83
2022/02/25 04:45:07;;;;;;;8.48;1.60;;;;;;;-2.60;100.00;93511.91;2089676;28;20025;-81
2022/02/25 04:46:19;;;;;;;7.05;1.33;;;;;;;-2.64;100.00;93530.09;2097836;28;20461;-81
2022/02/25 04:47:21;;;;;;;14.32;1.65;;;;;;;-2.53;100.00;93523.41;2084406;28;20060;-81
2022/02/25 04:48:23;;;;;;;6.90;1.27;;;;;;;-2.66;100.00;93521.84;2104879;28;20423;-82